createdAt,value
2019-04-26T00:00:03.910Z,1007.15
2019-04-26T00:01:02.543Z,1007.15
2019-04-26T00:02:01.984Z,1007.2
2019-04-26T00:03:01.966Z,1007.2
2019-04-26T00:04:02.176Z,1007.2
2019-04-26T00:05:02.438Z,1007.2
2019-04-26T00:06:02.634Z,1007.3
2019-04-26T00:07:02.146Z,1007.3
2019-04-26T00:08:02.111Z,1007.3
2019-04-26T00:09:02.583Z,1007.3
2019-04-26T00:10:02.563Z,1007.44
2019-04-26T00:11:01.818Z,1007.44
2019-04-26T00:12:02.066Z,1007.44
2019-04-26T00:13:02.645Z,1007.44
2019-04-26T00:14:02.558Z,1007.44
2019-04-26T00:15:02.703Z,1007.44
2019-04-26T00:16:02.230Z,1007.44
2019-04-26T00:17:02.767Z,1007.44
2019-04-26T00:18:01.672Z,1007.37
2019-04-26T00:19:02.095Z,1007.37
2019-04-26T00:20:02.248Z,1007.37
2019-04-26T00:21:02.384Z,1007.37
2019-04-26T00:22:02.547Z,1007.27
2019-04-26T00:23:02.453Z,1007.27
2019-04-26T00:24:01.881Z,1007.27
2019-04-26T00:25:01.872Z,1007.27
2019-04-26T00:26:01.992Z,1007.32
2019-04-26T00:27:02.239Z,1007.32
2019-04-26T00:28:02.449Z,1007.32
2019-04-26T00:29:01.748Z,1007.32
2019-04-26T00:30:01.916Z,1007.15
2019-04-26T00:31:02.108Z,1007.15
2019-04-26T00:32:02.361Z,1007.15
2019-04-26T00:33:02.623Z,1007.15
2019-04-26T00:34:02.016Z,1007.16
2019-04-26T00:35:02.121Z,1007.16
2019-04-26T00:36:02.340Z,1007.16
2019-04-26T00:37:02.479Z,1007.16
2019-04-26T00:38:01.756Z,1007.15
2019-04-26T00:39:01.998Z,1007.15
2019-04-26T00:40:02.212Z,1007.15
2019-04-26T00:41:02.429Z,1007.15
2019-04-26T00:42:02.614Z,1007.19
2019-04-26T00:43:01.801Z,1007.19
2019-04-26T00:44:02.019Z,1007.19
2019-04-26T00:45:02.252Z,1007.19
2019-04-26T00:46:02.471Z,1007.24
2019-04-26T00:47:01.665Z,1007.24
2019-04-26T00:48:02.118Z,1007.24
2019-04-26T00:49:02.093Z,1007.24
2019-04-26T00:50:02.344Z,1007.2
2019-04-26T00:51:02.565Z,1007.2
2019-04-26T00:52:01.763Z,1007.2
2019-04-26T00:53:01.950Z,1007.2
2019-04-26T00:54:02.222Z,1007.08
2019-04-26T00:55:02.466Z,1007.08
2019-04-26T00:56:01.649Z,1007.08
2019-04-26T00:57:01.903Z,1007.08
2019-04-26T00:58:02.149Z,1007.34
2019-04-26T00:59:02.419Z,1007.34
2019-04-26T01:00:05.086Z,1007.34
2019-04-26T01:01:01.879Z,1007.34
2019-04-26T01:02:02.172Z,1007.31
2019-04-26T01:03:02.363Z,1007.31
2019-04-26T01:04:02.574Z,1007.31
2019-04-26T01:05:02.140Z,1007.31
2019-04-26T01:06:02.061Z,1007.39
2019-04-26T01:07:02.358Z,1007.39
2019-04-26T01:08:02.506Z,1007.39
2019-04-26T01:09:02.793Z,1007.39
2019-04-26T01:10:01.927Z,1007.48
2019-04-26T01:11:02.156Z,1007.48
2019-04-26T01:12:01.938Z,1007.48
2019-04-26T01:13:02.168Z,1007.48
2019-04-26T01:14:02.439Z,1007.44
2019-04-26T01:15:02.689Z,1007.44
2019-04-26T01:16:01.900Z,1007.44
2019-04-26T01:17:02.060Z,1007.44
2019-04-26T01:18:02.679Z,1007.44
2019-04-26T01:19:02.534Z,1007.44
2019-04-26T01:20:01.859Z,1007.44
2019-04-26T01:21:03.102Z,1007.44
2019-04-26T01:22:02.200Z,1007.55
2019-04-26T01:23:06.975Z,1007.55
2019-04-26T01:24:02.599Z,1007.55
2019-04-26T01:25:02.001Z,1007.55
2019-04-26T01:26:02.097Z,1007.48
2019-04-26T01:27:02.327Z,1007.48
2019-04-26T01:28:02.546Z,1007.48
2019-04-26T01:29:01.765Z,1007.48
2019-04-26T01:30:01.985Z,1007.48
2019-04-26T01:31:02.182Z,1007.48
2019-04-26T01:32:02.357Z,1007.48
2019-04-26T01:33:02.670Z,1007.58
2019-04-26T01:34:01.888Z,1007.58
2019-04-26T01:35:02.190Z,1007.58
2019-04-26T01:36:13.809Z,1007.58
2019-04-26T01:37:02.559Z,1007.46
2019-04-26T01:38:01.795Z,1007.46
2019-04-26T01:39:01.894Z,1007.46
2019-04-26T01:40:02.665Z,1007.46
2019-04-26T01:41:02.467Z,1007.52
2019-04-26T01:42:01.638Z,1007.52
2019-04-26T01:43:01.835Z,1007.52
2019-04-26T01:44:02.091Z,1007.52
2019-04-26T01:45:02.428Z,1007.63
2019-04-26T01:46:02.608Z,1007.63
2019-04-26T01:47:01.799Z,1007.63
2019-04-26T01:48:02.064Z,1007.63
2019-04-26T01:49:02.235Z,1007.62
2019-04-26T01:50:02.539Z,1007.62
2019-04-26T01:51:01.851Z,1007.62
2019-04-26T01:52:02.056Z,1007.62
2019-04-26T01:53:02.257Z,1007.52
2019-04-26T01:54:02.382Z,1007.52
2019-04-26T01:55:01.742Z,1007.52
2019-04-26T01:56:01.909Z,1007.52
2019-04-26T01:57:02.137Z,1007.71
2019-04-26T01:58:02.695Z,1007.71
2019-04-26T01:59:02.559Z,1007.71
2019-04-26T02:00:03.604Z,1007.71
2019-04-26T02:01:02.312Z,1007.64
2019-04-26T02:02:02.513Z,1007.64
2019-04-26T02:03:01.768Z,1007.64
2019-04-26T02:04:05.544Z,1007.64
2019-04-26T02:05:02.312Z,1007.63
2019-04-26T02:06:02.535Z,1007.63
2019-04-26T02:07:01.801Z,1007.63
2019-04-26T02:08:02.059Z,1007.63
2019-04-26T02:09:02.260Z,1007.58
2019-04-26T02:10:02.523Z,1007.58
2019-04-26T02:11:02.037Z,1007.58
2019-04-26T02:12:01.896Z,1007.58
2019-04-26T02:13:02.186Z,1007.59
2019-04-26T02:14:03.468Z,1007.59
2019-04-26T02:15:01.651Z,1007.59
2019-04-26T02:16:01.877Z,1007.59
2019-04-26T02:17:02.926Z,1007.52
2019-04-26T02:18:02.081Z,1007.52
2019-04-26T02:19:02.289Z,1007.52
2019-04-26T02:20:02.456Z,1007.52
2019-04-26T02:21:01.678Z,1007.59
2019-04-26T02:22:01.858Z,1007.59
2019-04-26T02:23:02.048Z,1007.59
2019-04-26T02:24:03.283Z,1007.59
2019-04-26T02:25:02.564Z,1007.58
2019-04-26T02:26:01.784Z,1007.58
2019-04-26T02:27:02.082Z,1007.58
2019-04-26T02:28:02.257Z,1007.58
2019-04-26T02:29:02.519Z,1007.57
2019-04-26T02:30:01.943Z,1007.57
2019-04-26T02:31:01.908Z,1007.57
2019-04-26T02:32:02.141Z,1007.57
2019-04-26T02:33:02.410Z,1007.47
2019-04-26T02:34:02.618Z,1007.47
2019-04-26T02:35:01.951Z,1007.47
2019-04-26T02:36:02.067Z,1007.47
2019-04-26T02:37:02.404Z,1007.52
2019-04-26T02:38:02.516Z,1007.52
2019-04-26T02:39:01.768Z,1007.52
2019-04-26T02:40:02.100Z,1007.52
2019-04-26T02:41:03.271Z,1007.73
2019-04-26T02:42:02.516Z,1007.73
2019-04-26T02:43:02.717Z,1007.73
2019-04-26T02:44:01.886Z,1007.73
2019-04-26T02:45:02.265Z,1007.61
2019-04-26T02:46:02.450Z,1007.61
2019-04-26T02:47:01.670Z,1007.61
2019-04-26T02:48:01.963Z,1007.61
2019-04-26T02:49:02.190Z,1007.69
2019-04-26T02:50:02.397Z,1007.69
2019-04-26T02:51:02.556Z,1007.69
2019-04-26T02:52:01.894Z,1007.69
2019-04-26T02:53:01.972Z,1007.63
2019-04-26T02:54:02.296Z,1007.63
2019-04-26T02:55:02.529Z,1007.63
2019-04-26T02:56:01.882Z,1007.63
2019-04-26T02:57:02.123Z,1007.69
2019-04-26T02:58:02.337Z,1007.69
2019-04-26T02:59:02.574Z,1007.69
2019-04-26T03:00:01.889Z,1007.69
2019-04-26T03:01:02.046Z,1007.65
2019-04-26T03:02:03.355Z,1007.65
2019-04-26T03:03:02.930Z,1007.65
2019-04-26T03:04:01.784Z,1007.65
2019-04-26T03:05:01.956Z,1007.74
2019-04-26T03:06:02.141Z,1007.74
2019-04-26T03:07:04.273Z,1007.74
2019-04-26T03:08:02.618Z,1007.74
2019-04-26T03:09:01.944Z,1007.58
2019-04-26T03:10:02.143Z,1007.58
2019-04-26T03:11:02.359Z,1007.58
2019-04-26T03:12:02.624Z,1007.58
2019-04-26T03:13:01.746Z,1007.71
2019-04-26T03:14:01.913Z,1007.71
2019-04-26T03:15:14.672Z,1007.71
2019-04-26T03:16:02.328Z,1007.71
2019-04-26T03:17:02.591Z,1007.71
2019-04-26T03:18:01.714Z,1007.71
2019-04-26T03:19:01.977Z,1007.71
2019-04-26T03:20:02.413Z,1007.55
2019-04-26T03:21:02.468Z,1007.55
2019-04-26T03:22:01.799Z,1007.55
2019-04-26T03:23:02.039Z,1007.55
2019-04-26T03:24:02.187Z,1007.48
2019-04-26T03:25:02.451Z,1007.48
2019-04-26T03:26:02.637Z,1007.48
2019-04-26T03:27:01.941Z,1007.48
2019-04-26T03:28:02.152Z,1007.31
2019-04-26T03:29:02.330Z,1007.31
2019-04-26T03:30:23.270Z,1007.31
2019-04-26T03:31:01.777Z,1007.31
2019-04-26T03:32:02.098Z,1007.46
2019-04-26T03:33:02.733Z,1007.46
2019-04-26T03:34:02.976Z,1007.46
2019-04-26T03:35:01.708Z,1007.46
2019-04-26T03:36:01.884Z,1007.6
2019-04-26T03:37:21.653Z,1007.6
2019-04-26T03:38:06.683Z,1007.6
2019-04-26T03:39:02.386Z,1007.6
2019-04-26T03:40:02.608Z,1007.81
2019-04-26T03:41:01.773Z,1007.81
2019-04-26T03:42:01.997Z,1007.81
2019-04-26T03:43:02.231Z,1007.81
2019-04-26T03:44:02.484Z,1007.77
2019-04-26T03:45:01.694Z,1007.77
2019-04-26T03:46:01.904Z,1007.77
2019-04-26T03:47:02.132Z,1007.77
2019-04-26T03:48:02.363Z,1007.89
2019-04-26T03:49:02.663Z,1007.89
2019-04-26T03:50:01.994Z,1007.89
2019-04-26T03:51:02.128Z,1007.89
2019-04-26T03:52:02.280Z,1008.08
2019-04-26T03:53:02.557Z,1008.08
2019-04-26T03:54:01.784Z,1008.08
2019-04-26T03:55:02.035Z,1008.08
2019-04-26T03:56:02.292Z,1007.94
2019-04-26T03:57:02.444Z,1007.94
2019-04-26T03:58:01.828Z,1007.94
2019-04-26T03:59:01.958Z,1007.94
2019-04-26T04:00:03.827Z,1008
2019-04-26T04:01:02.627Z,1008
2019-04-26T04:02:01.849Z,1008
2019-04-26T04:03:02.147Z,1008
2019-04-26T04:04:02.311Z,1007.87
2019-04-26T04:05:02.572Z,1007.87
2019-04-26T04:06:01.761Z,1007.87
2019-04-26T04:07:05.493Z,1007.87
2019-04-26T04:08:02.157Z,1007.89
2019-04-26T04:09:02.317Z,1007.89
2019-04-26T04:10:02.556Z,1007.89
2019-04-26T04:11:01.760Z,1007.89
2019-04-26T04:12:12.641Z,1007.87
2019-04-26T04:13:02.206Z,1007.87
2019-04-26T04:14:02.718Z,1007.87
2019-04-26T04:15:01.852Z,1007.87
2019-04-26T04:16:02.018Z,1008.03
2019-04-26T04:17:02.148Z,1008.03
2019-04-26T04:18:02.426Z,1008.03
2019-04-26T04:19:02.561Z,1008.03
2019-04-26T04:20:01.922Z,1008.07
2019-04-26T04:21:02.021Z,1008.07
2019-04-26T04:22:02.260Z,1008.07
2019-04-26T04:23:02.546Z,1008.07
2019-04-26T04:24:01.716Z,1008.1
2019-04-26T04:25:02.037Z,1008.1
2019-04-26T04:26:02.208Z,1008.1
2019-04-26T04:27:02.370Z,1008.1
2019-04-26T04:28:03.830Z,1008.21
2019-04-26T04:29:01.896Z,1008.21
2019-04-26T04:30:02.168Z,1008.21
2019-04-26T04:31:02.368Z,1008.21
2019-04-26T04:32:02.633Z,1008.2
2019-04-26T04:33:01.823Z,1008.2
2019-04-26T04:34:02.069Z,1008.2
2019-04-26T04:35:06.968Z,1008.2
2019-04-26T04:36:02.468Z,1008.34
2019-04-26T04:37:01.730Z,1008.34
2019-04-26T04:38:10.180Z,1008.34
2019-04-26T04:39:13.354Z,1008.34
2019-04-26T04:40:02.388Z,1008.19
2019-04-26T04:41:02.597Z,1008.19
2019-04-26T04:42:01.867Z,1008.19
2019-04-26T04:43:02.454Z,1008.19
2019-04-26T04:44:02.350Z,1008.24
2019-04-26T04:45:03.235Z,1008.24
2019-04-26T04:46:02.081Z,1008.24
2019-04-26T04:47:01.927Z,1008.24
2019-04-26T04:48:02.124Z,1008.29
2019-04-26T04:49:02.457Z,1008.29
2019-04-26T04:50:02.096Z,1008.29
2019-04-26T04:51:01.915Z,1008.29
2019-04-26T04:52:02.111Z,1008.36
2019-04-26T04:53:02.328Z,1008.36
2019-04-26T04:54:02.578Z,1008.36
2019-04-26T04:55:08.367Z,1008.36
2019-04-26T04:56:02.142Z,1008.31
2019-04-26T04:57:02.161Z,1008.31
2019-04-26T04:58:02.409Z,1008.31
2019-04-26T04:59:01.624Z,1008.36
2019-04-26T05:00:04.345Z,1008.36
2019-04-26T05:01:02.287Z,1008.36
2019-04-26T05:02:02.401Z,1008.36
2019-04-26T05:03:02.643Z,1008.47
2019-04-26T05:04:01.879Z,1008.47
2019-04-26T05:05:02.119Z,1008.47
2019-04-26T05:06:08.374Z,1008.47
2019-04-26T05:07:02.549Z,1008.58
2019-04-26T05:08:07.446Z,1008.58
2019-04-26T05:09:01.888Z,1008.58
2019-04-26T05:10:02.230Z,1008.58
2019-04-26T05:11:02.376Z,1008.59
2019-04-26T05:12:02.933Z,1008.59
2019-04-26T05:13:01.769Z,1008.59
2019-04-26T05:14:02.030Z,1008.59
2019-04-26T05:15:02.295Z,1008.5
2019-04-26T05:16:02.493Z,1008.5
2019-04-26T05:17:01.691Z,1008.5
2019-04-26T05:18:01.839Z,1008.5
2019-04-26T05:19:02.084Z,1008.42
2019-04-26T05:20:02.349Z,1008.42
2019-04-26T05:21:02.529Z,1008.42
2019-04-26T05:22:01.769Z,1008.42
2019-04-26T05:23:01.968Z,1008.53
2019-04-26T05:24:02.190Z,1008.53
2019-04-26T05:25:02.496Z,1008.53
2019-04-26T05:26:01.706Z,1008.53
2019-04-26T05:27:02.991Z,1008.66
2019-04-26T05:28:02.182Z,1008.66
2019-04-26T05:29:02.515Z,1008.66
2019-04-26T05:30:02.670Z,1008.66
2019-04-26T05:31:01.970Z,1008.76
2019-04-26T05:32:02.128Z,1008.76
2019-04-26T05:33:02.315Z,1008.76
2019-04-26T05:34:02.573Z,1008.76
2019-04-26T05:35:01.885Z,1008.69
2019-04-26T05:36:01.947Z,1008.69
2019-04-26T05:37:02.164Z,1008.69
2019-04-26T05:38:02.552Z,1008.69
2019-04-26T05:39:07.254Z,1008.94
2019-04-26T05:40:02.044Z,1008.94
2019-04-26T05:41:02.174Z,1008.94
2019-04-26T05:42:02.415Z,1008.94
2019-04-26T05:43:02.684Z,1009.11
2019-04-26T05:44:01.891Z,1009.11
2019-04-26T05:45:02.155Z,1009.11
2019-04-26T05:46:02.664Z,1009.11
2019-04-26T05:47:02.596Z,1009.03
2019-04-26T05:48:12.056Z,1009.03
2019-04-26T05:49:03.107Z,1009.03
2019-04-26T05:50:02.739Z,1009.03
2019-04-26T05:51:02.535Z,1009.08
2019-04-26T05:52:02.540Z,1009.08
2019-04-26T05:53:02.187Z,1009.08
2019-04-26T05:54:02.072Z,1009.08
2019-04-26T05:55:02.968Z,1009.11
2019-04-26T05:56:02.798Z,1009.11
2019-04-26T05:57:02.943Z,1009.11
2019-04-26T05:58:03.206Z,1009.11
2019-04-26T05:59:03.454Z,1009.2
2019-04-26T06:00:03.524Z,1009.2
2019-04-26T06:01:02.399Z,1009.2
2019-04-26T06:02:02.598Z,1009.2
2019-04-26T06:03:01.829Z,1009.22
2019-04-26T06:04:02.955Z,1009.22
2019-04-26T06:05:02.417Z,1009.22
2019-04-26T06:06:05.691Z,1009.22
2019-04-26T06:07:01.781Z,1009.1
2019-04-26T06:08:03.454Z,1009.1
2019-04-26T06:09:02.185Z,1009.1
2019-04-26T06:10:03.387Z,1009.1
2019-04-26T06:11:02.974Z,1009.23
2019-04-26T06:12:03.092Z,1009.23
2019-04-26T06:13:03.248Z,1009.23
2019-04-26T06:14:02.322Z,1009.23
2019-04-26T06:15:02.662Z,1009.2
2019-04-26T06:16:02.752Z,1009.2
2019-04-26T06:17:02.085Z,1009.2
2019-04-26T06:18:02.353Z,1009.2
2019-04-26T06:19:02.653Z,1009.22
2019-04-26T06:20:02.878Z,1009.22
2019-04-26T06:21:02.812Z,1009.22
2019-04-26T06:22:02.422Z,1009.22
2019-04-26T06:23:02.657Z,1009.19
2019-04-26T06:24:02.452Z,1009.19
2019-04-26T06:25:03.306Z,1009.19
2019-04-26T06:26:04.886Z,1009.19
2019-04-26T06:27:14.497Z,1009.27
2019-04-26T06:28:03.028Z,1009.27
2019-04-26T06:29:03.226Z,1009.27
2019-04-26T06:30:03.607Z,1009.27
2019-04-26T06:31:03.466Z,1009.47
2019-04-26T06:32:02.888Z,1009.47
2019-04-26T06:33:06.441Z,1009.47
2019-04-26T06:34:03.354Z,1009.47
2019-04-26T06:35:03.434Z,1009.6
2019-04-26T06:36:02.597Z,1009.6
2019-04-26T06:37:02.737Z,1009.6
2019-04-26T06:38:02.142Z,1009.6
2019-04-26T06:39:02.479Z,1009.66
2019-04-26T06:40:02.545Z,1009.66
2019-04-26T06:41:02.845Z,1009.66
2019-04-26T06:42:03.240Z,1009.38
2019-04-26T06:43:03.108Z,1009.38
2019-04-26T06:44:03.066Z,1009.38
2019-04-26T06:45:03.111Z,1009.38
2019-04-26T06:46:03.012Z,1009.45
2019-04-26T06:47:02.196Z,1009.45
2019-04-26T06:48:02.346Z,1009.45
2019-04-26T06:49:03.681Z,1009.45
2019-04-26T06:50:01.977Z,1009.72
2019-04-26T06:51:03.060Z,1009.72
2019-04-26T06:52:02.876Z,1009.72
2019-04-26T06:53:03.923Z,1009.72
2019-04-26T06:54:01.857Z,1009.98
2019-04-26T06:55:02.658Z,1009.98
2019-04-26T06:56:03.200Z,1009.98
2019-04-26T06:57:15.249Z,1009.98
2019-04-26T06:58:03.206Z,1010.13
2019-04-26T06:59:03.459Z,1010.13
2019-04-26T07:00:04.679Z,1010.13
2019-04-26T07:01:03.596Z,1010.13
2019-04-26T07:02:02.847Z,1010.19
2019-04-26T07:03:01.935Z,1010.19
2019-04-26T07:04:02.371Z,1010.19
2019-04-26T07:05:03.202Z,1010.19
2019-04-26T07:06:02.818Z,1010.36
2019-04-26T07:07:03.015Z,1010.36
2019-04-26T07:08:04.919Z,1010.36
2019-04-26T07:09:03.893Z,1010.36
2019-04-26T07:10:02.500Z,1010.41
2019-04-26T07:11:03.153Z,1010.41
2019-04-26T07:12:02.883Z,1010.41
2019-04-26T07:13:01.967Z,1010.41
2019-04-26T07:14:03.112Z,1010.47
2019-04-26T07:15:03.719Z,1010.47
2019-04-26T07:16:23.028Z,1010.47
2019-04-26T07:17:02.739Z,1010.47
2019-04-26T07:18:02.427Z,1010.4
2019-04-26T07:19:02.027Z,1010.4
2019-04-26T07:20:05.980Z,1010.4
2019-04-26T07:21:02.404Z,1010.4
2019-04-26T07:22:02.298Z,1010.36
2019-04-26T07:23:02.369Z,1010.36
2019-04-26T07:24:04.131Z,1010.36
2019-04-26T07:25:03.489Z,1010.36
2019-04-26T07:26:03.760Z,1010.53
2019-04-26T07:27:03.335Z,1010.53
2019-04-26T07:28:11.858Z,1010.53
2019-04-26T07:29:04.626Z,1010.53
2019-04-26T07:30:05.294Z,1010.52
2019-04-26T07:31:04.032Z,1010.52
2019-04-26T07:32:03.352Z,1010.52
2019-04-26T07:33:02.685Z,1010.52
2019-04-26T07:34:03.791Z,1010.54
2019-04-26T07:35:03.062Z,1010.54
2019-04-26T07:36:04.012Z,1010.54
2019-04-26T07:37:03.185Z,1010.54
2019-04-26T07:38:02.933Z,1010.44
2019-04-26T07:39:20.837Z,1010.44
2019-04-26T07:40:03.217Z,1010.44
2019-04-26T07:41:03.028Z,1010.44
2019-04-26T07:42:03.433Z,1010.29
2019-04-26T07:43:03.553Z,1010.29
2019-04-26T07:44:05.541Z,1010.29
2019-04-26T07:45:03.758Z,1010.29
2019-04-26T07:46:04.230Z,1010.41
2019-04-26T07:47:05.954Z,1010.41
2019-04-26T07:48:03.484Z,1010.41
2019-04-26T07:49:04.426Z,1010.41
2019-04-26T07:50:05.040Z,1010.44
2019-04-26T07:51:04.360Z,1010.44
2019-04-26T07:52:04.274Z,1010.44
2019-04-26T07:53:05.134Z,1010.44
2019-04-26T07:54:04.958Z,1010.33
2019-04-26T07:55:04.819Z,1010.33
2019-04-26T07:56:04.927Z,1010.33
2019-04-26T07:57:04.557Z,1010.33
2019-04-26T07:58:05.213Z,1010.5
2019-04-26T07:59:07.093Z,1010.5
2019-04-26T08:00:04.630Z,1010.5
2019-04-26T08:01:04.148Z,1010.5
2019-04-26T08:02:02.570Z,1010.73
2019-04-26T08:03:01.888Z,1010.73
2019-04-26T08:04:05.237Z,1010.73
2019-04-26T08:05:05.800Z,1010.73
2019-04-26T08:06:05.687Z,1010.82
2019-04-26T08:07:01.687Z,1010.82
2019-04-26T08:08:02.230Z,1010.82
2019-04-26T08:09:02.067Z,1010.82
2019-04-26T08:10:03.611Z,1010.71
2019-04-26T08:11:04.433Z,1010.71
2019-04-26T08:12:01.640Z,1010.71
2019-04-26T08:13:01.861Z,1010.71
2019-04-26T08:14:01.995Z,1010.67
2019-04-26T08:15:02.309Z,1010.67
2019-04-26T08:16:04.883Z,1010.67
2019-04-26T08:17:01.840Z,1010.67
2019-04-26T08:18:02.025Z,1010.65
2019-04-26T08:19:02.256Z,1010.65
2019-04-26T08:20:02.536Z,1010.65
2019-04-26T08:21:13.832Z,1010.45
2019-04-26T08:22:23.555Z,1010.45
2019-04-26T08:23:09.148Z,1010.45
2019-04-26T08:24:02.310Z,1010.45
2019-04-26T08:25:02.784Z,1010.49
2019-04-26T08:26:01.760Z,1010.49
2019-04-26T08:27:23.226Z,1010.49
2019-04-26T08:28:02.207Z,1010.49
2019-04-26T08:29:02.412Z,1010.53
2019-04-26T08:30:12.308Z,1010.53
2019-04-26T08:31:04.595Z,1010.53
2019-04-26T08:32:02.266Z,1010.53
2019-04-26T08:33:11.682Z,1010.79
2019-04-26T08:34:01.689Z,1010.79
2019-04-26T08:35:15.138Z,1010.79
2019-04-26T08:36:02.155Z,1010.79
2019-04-26T08:37:03.532Z,1011.04
2019-04-26T08:38:07.938Z,1011.04
2019-04-26T08:39:01.814Z,1011.04
2019-04-26T08:40:02.035Z,1011.04
2019-04-26T08:41:08.156Z,1011.29
2019-04-26T08:42:02.504Z,1011.29
2019-04-26T08:43:01.748Z,1011.29
2019-04-26T08:44:07.114Z,1011.29
2019-04-26T08:45:12.421Z,1011.35
2019-04-26T08:46:03.713Z,1011.35
2019-04-26T08:47:02.555Z,1011.35
2019-04-26T08:48:01.717Z,1011.35
2019-04-26T08:49:06.702Z,1011.43
2019-04-26T08:50:02.109Z,1011.43
2019-04-26T08:51:02.361Z,1011.43
2019-04-26T08:52:15.019Z,1011.43
2019-04-26T08:53:01.741Z,1011.33
2019-04-26T08:54:01.969Z,1011.33
2019-04-26T08:55:02.262Z,1011.33
2019-04-26T08:56:02.509Z,1011.33
2019-04-26T08:57:02.628Z,1011.3
2019-04-26T08:58:01.838Z,1011.3
2019-04-26T08:59:02.096Z,1011.3
2019-04-26T09:00:06.256Z,1011.3
2019-04-26T09:01:02.105Z,1011.33
2019-04-26T09:02:02.331Z,1011.33
2019-04-26T09:03:12.239Z,1011.33
2019-04-26T09:04:01.884Z,1011.33
2019-04-26T09:05:02.364Z,1011.33
2019-04-26T09:06:02.401Z,1011.33
2019-04-26T09:07:02.661Z,1011.33
2019-04-26T09:08:04.291Z,1011.33
2019-04-26T09:09:02.427Z,1011.26
2019-04-26T09:10:11.537Z,1011.26
2019-04-26T09:11:02.551Z,1011.26
2019-04-26T09:12:08.642Z,1011.26
2019-04-26T09:13:01.951Z,1011.25
2019-04-26T09:14:02.216Z,1011.25
2019-04-26T09:15:02.532Z,1011.25
2019-04-26T09:16:01.979Z,1011.25
2019-04-26T09:17:01.976Z,1011.32
2019-04-26T09:18:06.155Z,1011.32
2019-04-26T09:19:02.362Z,1011.32
2019-04-26T09:20:09.559Z,1011.32
2019-04-26T09:21:01.917Z,1011.29
2019-04-26T09:22:13.709Z,1011.29
2019-04-26T09:23:05.173Z,1011.29
2019-04-26T09:24:08.319Z,1011.29
2019-04-26T09:25:02.375Z,1011.25
2019-04-26T09:26:02.749Z,1011.25
2019-04-26T09:27:01.858Z,1011.25
2019-04-26T09:28:02.090Z,1011.25
2019-04-26T09:29:02.702Z,1011.3
2019-04-26T09:30:06.506Z,1011.3
2019-04-26T09:31:01.778Z,1011.3
2019-04-26T09:32:02.023Z,1011.3
2019-04-26T09:33:03.387Z,1011.18
2019-04-26T09:34:11.441Z,1011.18
2019-04-26T09:35:01.728Z,1011.18
2019-04-26T09:36:01.837Z,1011.18
2019-04-26T09:37:02.438Z,1011.27
2019-04-26T09:38:02.236Z,1011.27
2019-04-26T09:39:08.479Z,1011.27
2019-04-26T09:40:19.597Z,1011.27
2019-04-26T09:41:01.937Z,1011.32
2019-04-26T09:42:09.842Z,1011.32
2019-04-26T09:43:03.111Z,1011.32
2019-04-26T09:44:02.604Z,1011.32
2019-04-26T09:45:01.862Z,1011.31
2019-04-26T09:46:02.053Z,1011.31
2019-04-26T09:47:02.306Z,1011.31
2019-04-26T09:48:02.398Z,1011.31
2019-04-26T09:49:08.305Z,1011.41
2019-04-26T09:50:01.849Z,1011.41
2019-04-26T09:51:02.022Z,1011.41
2019-04-26T09:52:02.237Z,1011.41
2019-04-26T09:53:02.432Z,1011.38
2019-04-26T09:54:01.682Z,1011.38
2019-04-26T09:55:02.005Z,1011.38
2019-04-26T09:56:02.221Z,1011.38
2019-04-26T09:57:02.495Z,1011.3
2019-04-26T09:58:01.674Z,1011.3
2019-04-26T09:59:06.803Z,1011.3
2019-04-26T10:00:05.041Z,1011.28
2019-04-26T10:01:01.900Z,1011.28
2019-04-26T10:02:02.156Z,1011.28
2019-04-26T10:03:10.688Z,1011.28
2019-04-26T10:04:02.574Z,1011.21
2019-04-26T10:05:01.755Z,1011.21
2019-04-26T10:06:01.900Z,1011.21
2019-04-26T10:07:04.365Z,1011.21
2019-04-26T10:08:02.368Z,1011.29
2019-04-26T10:09:02.728Z,1011.29
2019-04-26T10:10:01.870Z,1011.29
2019-04-26T10:11:05.647Z,1011.29
2019-04-26T10:12:02.323Z,1011.34
2019-04-26T10:13:02.592Z,1011.34
2019-04-26T10:14:01.811Z,1011.34
2019-04-26T10:15:02.146Z,1011.34
2019-04-26T10:16:04.502Z,1011.26
2019-04-26T10:17:02.595Z,1011.26
2019-04-26T10:18:02.040Z,1011.26
2019-04-26T10:19:02.115Z,1011.26
2019-04-26T10:20:02.290Z,1011.41
2019-04-26T10:21:02.486Z,1011.41
2019-04-26T10:22:01.692Z,1011.41
2019-04-26T10:23:02.946Z,1011.41
2019-04-26T10:24:02.166Z,1011.28
2019-04-26T10:25:16.634Z,1011.28
2019-04-26T10:26:03.569Z,1011.28
2019-04-26T10:27:05.125Z,1011.28
2019-04-26T10:28:02.041Z,1011.31
2019-04-26T10:29:02.214Z,1011.31
2019-04-26T10:30:09.711Z,1011.31
2019-04-26T10:31:01.691Z,1011.31
2019-04-26T10:32:01.891Z,1011.39
2019-04-26T10:33:03.713Z,1011.39
2019-04-26T10:34:02.326Z,1011.39
2019-04-26T10:35:02.559Z,1011.39
2019-04-26T10:36:02.385Z,1011.35
2019-04-26T10:37:07.655Z,1011.35
2019-04-26T10:38:01.875Z,1011.35
2019-04-26T10:39:05.674Z,1011.35
2019-04-26T10:40:02.453Z,1011.43
2019-04-26T10:41:02.554Z,1011.43
2019-04-26T10:42:01.822Z,1011.43
2019-04-26T10:43:02.019Z,1011.43
2019-04-26T10:44:02.289Z,1011.47
2019-04-26T10:45:02.488Z,1011.47
2019-04-26T10:46:01.638Z,1011.47
2019-04-26T10:47:06.192Z,1011.47
2019-04-26T10:48:02.063Z,1011.46
2019-04-26T10:49:12.081Z,1011.46
2019-04-26T10:50:02.436Z,1011.46
2019-04-26T10:51:08.884Z,1011.46
2019-04-26T10:52:01.887Z,1011.44
2019-04-26T10:53:02.086Z,1011.44
2019-04-26T10:54:07.821Z,1011.44
2019-04-26T10:55:02.565Z,1011.44
2019-04-26T10:56:01.727Z,1011.67
2019-04-26T10:57:01.896Z,1011.67
2019-04-26T10:58:02.246Z,1011.67
2019-04-26T10:59:02.581Z,1011.67
2019-04-26T11:00:05.197Z,1011.48
2019-04-26T11:01:01.989Z,1011.48
2019-04-26T11:02:02.255Z,1011.48
2019-04-26T11:03:06.308Z,1011.48
2019-04-26T11:04:01.778Z,1011.52
2019-04-26T11:05:01.845Z,1011.52
2019-04-26T11:06:01.998Z,1011.52
2019-04-26T11:07:03.756Z,1011.52
2019-04-26T11:08:02.493Z,1011.56
2019-04-26T11:09:02.689Z,1011.56
2019-04-26T11:10:03.360Z,1011.56
2019-04-26T11:11:02.156Z,1011.56
2019-04-26T11:12:02.310Z,1011.64
2019-04-26T11:13:02.486Z,1011.64
2019-04-26T11:14:01.710Z,1011.64
2019-04-26T11:15:02.021Z,1011.64
2019-04-26T11:16:08.877Z,1011.6
2019-04-26T11:17:02.463Z,1011.6
2019-04-26T11:18:02.657Z,1011.6
2019-04-26T11:19:02.515Z,1011.6
2019-04-26T11:20:02.092Z,1011.66
2019-04-26T11:21:02.244Z,1011.66
2019-04-26T11:22:02.565Z,1011.66
2019-04-26T11:23:01.799Z,1011.66
2019-04-26T11:24:01.831Z,1011.73
2019-04-26T11:25:02.068Z,1011.73
2019-04-26T11:26:03.531Z,1011.73
2019-04-26T11:27:11.047Z,1011.73
2019-04-26T11:28:01.708Z,1011.79
2019-04-26T11:29:01.785Z,1011.79
2019-04-26T11:30:20.660Z,1011.79
2019-04-26T11:31:02.287Z,1011.79
2019-04-26T11:32:04.470Z,1011.76
2019-04-26T11:33:01.718Z,1011.76
2019-04-26T11:34:06.036Z,1011.76
2019-04-26T11:35:02.646Z,1011.76
2019-04-26T11:36:07.634Z,1011.89
2019-04-26T11:37:02.499Z,1011.89
2019-04-26T11:38:01.868Z,1011.89
2019-04-26T11:39:07.602Z,1011.89
2019-04-26T11:40:02.017Z,1011.9
2019-04-26T11:41:07.266Z,1011.9
2019-04-26T11:42:02.441Z,1011.9
2019-04-26T11:43:02.448Z,1011.82
2019-04-26T11:44:01.698Z,1011.82
2019-04-26T11:45:10.617Z,1011.82
2019-04-26T11:46:05.284Z,1011.82
2019-04-26T11:47:07.921Z,1011.87
2019-04-26T11:48:03.740Z,1011.87
2019-04-26T11:49:08.197Z,1011.87
2019-04-26T11:50:02.164Z,1011.87
2019-04-26T11:51:01.991Z,1012.01
2019-04-26T11:52:04.334Z,1012.01
2019-04-26T11:53:02.376Z,1012.01
2019-04-26T11:54:02.609Z,1012.01
2019-04-26T11:55:01.897Z,1011.83
2019-04-26T11:56:05.975Z,1011.83
2019-04-26T11:57:02.213Z,1011.83
2019-04-26T11:58:02.398Z,1011.83
2019-04-26T11:59:02.236Z,1012.1
2019-04-26T12:00:06.973Z,1012.1
2019-04-26T12:01:02.601Z,1012.1
2019-04-26T12:02:01.737Z,1012.1
2019-04-26T12:03:01.902Z,1012.17
2019-04-26T12:04:02.073Z,1012.17
2019-04-26T12:05:02.251Z,1012.17
2019-04-26T12:06:02.416Z,1012.17
2019-04-26T12:07:02.601Z,1012.01
2019-04-26T12:08:01.814Z,1012.01